createdAt,value
2022-10-16T06:31:16.712Z,10.18
2022-10-16T06:39:41.237Z,10.50
2022-10-16T06:42:10.760Z,11.32
2022-10-16T06:44:41.959Z,11.90
2022-10-16T10:23:04.972Z,10.40
2022-10-16T10:25:55.500Z,10.30
2022-10-16T10:29:05.891Z,10.50
2022-10-16T10:31:51.917Z,10.32
2022-10-16T10:34:31.678Z,10.43
2022-10-16T10:37:39.698Z,11.23
2022-10-16T10:40:51.100Z,10.90
2022-10-16T10:50:15.827Z,10.82
2022-10-16T10:53:03.121Z,10.73
2022-10-16T10:55:45.333Z,10.70
2022-10-16T10:58:53.153Z,11.45
2022-10-16T11:02:17.404Z,10.40
2022-10-16T11:05:15.339Z,11.18
2022-10-16T11:32:24.469Z,11.15
2022-10-16T11:35:14.266Z,11.18
2022-10-16T11:37:52.295Z,11.48
2022-10-16T11:43:57.077Z,11.45
2022-10-16T12:22:32.924Z,11.25
2022-10-16T12:28:00.728Z,11.82
2022-10-16T12:33:37.526Z,12.07
2022-10-16T12:36:32.366Z,12.05
2022-10-16T13:00:15.889Z,11.38
2022-10-16T13:03:35.780Z,11.95
2022-10-16T13:06:29.236Z,12.15
2022-10-16T13:12:01.210Z,11.75
2022-10-16T13:14:35.441Z,11.65
2022-10-16T13:17:32.048Z,12.13
2022-10-16T13:20:59.125Z,11.65
2022-10-16T13:24:30.520Z,12.23
2022-10-16T13:27:56.850Z,12.52
2022-10-16T13:37:04.320Z,12.55
2022-10-16T13:39:35.960Z,12.10
2022-10-16T13:42:27.776Z,12.68
2022-10-16T13:44:59.553Z,12.27
2022-10-16T13:47:31.738Z,12.48
2022-10-16T13:50:07.800Z,12.68
2022-10-16T13:55:31.149Z,13.63
2022-10-16T13:58:16.593Z,13.98
2022-10-16T14:01:02.581Z,13.50
2022-10-16T14:03:34.795Z,13.20
2022-10-16T14:06:07.347Z,14.57
2022-10-16T14:08:36.939Z,14.20
2022-10-16T14:11:06.470Z,13.27
2022-10-16T14:13:59.649Z,13.68
2022-10-16T14:16:47.249Z,14.45
2022-10-16T14:19:34.122Z,14.50
2022-10-16T14:22:10.565Z,14.35
2022-10-16T14:27:39.248Z,13.65
2022-10-16T14:30:09.693Z,13.98
2022-10-16T14:32:44.730Z,14.23
2022-10-16T14:35:42.165Z,14.27
2022-10-16T14:38:29.334Z,13.55
2022-10-16T14:41:02.755Z,14.25
2022-10-16T14:43:52.526Z,13.77
2022-10-16T14:49:31.197Z,14.50
2022-10-16T14:52:02.342Z,14.48
2022-10-16T14:54:31.129Z,13.80
2022-10-16T14:57:00.502Z,13.57
2022-10-16T14:59:37.224Z,14.27
2022-10-16T15:05:28.213Z,14.63
2022-10-16T15:07:59.735Z,15.40
2022-10-16T15:10:33.458Z,13.80
2022-10-16T15:13:13.477Z,13.73
2022-10-16T15:15:47.622Z,13.25
2022-10-16T15:21:14.204Z,13.20
2022-10-16T15:26:34.808Z,12.80
2022-10-16T15:29:02.501Z,13.45
2022-10-16T15:31:41.830Z,13.02
2022-10-16T15:40:08.289Z,12.63
2022-10-16T15:42:37.068Z,13.80
2022-10-16T15:45:07.286Z,12.70
2022-10-16T15:47:35.494Z,14.25
2022-10-16T16:06:09.112Z,13.45
2022-10-16T16:20:51.086Z,13.27
2022-10-16T16:36:42.968Z,12.80
2022-10-16T16:54:42.669Z,12.20
